Time;durP1;ratioP1;P1;durP2;ratioP2;P2;SDS_P1;SDS_P2;PMS_P1;PMS_P2;Temp;Humidity;BMP_temperature;BMP_pressure;BME280_temperature;BME280_humidity;BME280_pressure;Samples;Min_cycle;Max_cycle;Signal;HPM_P1;HPM_P2
2021/09/23 00:02:04;;;;;;;55.58;42.42;;;;;;;;;;5110484;28;20048;-62
2021/09/23 00:04:49;;;;;;;54.22;39.97;;;;;;;;;;5111804;28;20059;-62
2021/09/23 00:07:35;;;;;;;55.95;39.67;;;;;;;;;;5112385;28;20051;-61
2021/09/23 00:10:22;;;;;;;54.85;40.05;;;;;;;;;;5112099;28;20051;-62
2021/09/23 00:13:07;;;;;;;53.63;40.05;;;;;;;;;;5110061;28;20051;-61
2021/09/23 00:15:53;;;;;;;53.70;38.28;;;;;;;;;;5110005;28;20051;-61
2021/09/23 00:18:39;;;;;;;61.20;42.17;;;;;;;;;;5112066;28;20081;-62
2021/09/23 00:21:25;;;;;;;55.00;40.03;;;;;;;;;;5110123;28;20044;-61
2021/09/23 00:24:10;;;;;;;56.90;41.03;;;;;;;;;;5112082;28;20052;-61
2021/09/23 00:26:55;;;;;;;51.17;38.78;;;;;;;;;;5111996;28;20052;-61
2021/09/23 00:29:41;;;;;;;61.90;39.15;;;;;;;;;;5096433;28;20463;-62
2021/09/23 00:32:26;;;;;;;52.63;38.80;;;;;;;;;;5109882;28;20122;-62
2021/09/23 00:35:11;;;;;;;50.15;38.08;;;;;;;;;;5113929;28;20043;-62
2021/09/23 00:37:56;;;;;;;50.30;38.25;;;;;;;;;;5100061;28;20051;-61
2021/09/23 00:40:42;;;;;;;54.63;39.28;;;;;;;;;;5115568;28;20055;-63
2021/09/23 00:43:27;;;;;;;53.63;39.20;;;;;;;;;;5113643;28;20051;-61
2021/09/23 00:46:12;;;;;;;60.83;40.78;;;;;;;;;;5115316;28;20048;-61
2021/09/23 00:48:58;;;;;;;51.50;38.38;;;;;;;;;;5114201;28;20466;-62
2021/09/23 00:51:43;;;;;;;56.20;40.47;;;;;;;;;;5123617;28;20048;-62
2021/09/23 00:54:29;;;;;;;56.40;38.72;;;;;;;;;;5088512;28;20051;-62
2021/09/23 00:57:17;;;;;;;53.38;37.92;;;;;;;;;;5090286;28;20059;-61
2021/09/23 01:00:04;;;;;;;53.80;38.10;;;;;;;;;;5125576;28;20059;-61
2021/09/23 01:02:54;;;;;;;54.60;38.35;;;;;;;;;;5121845;28;20091;-61
2021/09/23 01:05:40;;;;;;;53.38;39.25;;;;;;;;;;5075836;28;20085;-61
2021/09/23 01:08:27;;;;;;;59.80;39.83;;;;;;;;;;5107950;28;20112;-62
2021/09/23 01:11:14;;;;;;;54.67;39.40;;;;;;;;;;5093791;28;20047;-61
2021/09/23 01:13:59;;;;;;;54.60;37.92;;;;;;;;;;5104738;28;20048;-62
2021/09/23 01:16:54;;;;;;;56.17;38.53;;;;;;;;;;5087033;28;20056;-61
2021/09/23 01:19:52;;;;;;;54.08;37.80;;;;;;;;;;5114655;28;20056;-61
2021/09/23 01:22:37;;;;;;;52.88;39.85;;;;;;;;;;5099262;28;20055;-61
2021/09/23 01:25:38;;;;;;;53.00;38.28;;;;;;;;;;5097116;28;20130;-62
2021/09/23 01:28:25;;;;;;;55.28;38.17;;;;;;;;;;5099076;28;20416;-61
2021/09/23 01:31:15;;;;;;;54.42;38.65;;;;;;;;;;5109619;28;20055;-62
2021/09/23 01:34:06;;;;;;;57.28;38.40;;;;;;;;;;5084362;28;20055;-62
2021/09/23 01:36:52;;;;;;;53.15;38.75;;;;;;;;;;5099198;28;20047;-61
2021/09/23 01:39:37;;;;;;;53.17;39.08;;;;;;;;;;5098955;28;20044;-61
2021/09/23 01:42:33;;;;;;;55.53;38.78;;;;;;;;;;5099966;28;20097;-62
2021/09/23 01:45:19;;;;;;;56.08;37.72;;;;;;;;;;5096777;28;20123;-61
2021/09/23 01:48:07;;;;;;;53.25;38.47;;;;;;;;;;5114168;28;20051;-61
2021/09/23 01:50:55;;;;;;;53.85;37.67;;;;;;;;;;5098577;28;20048;-62
2021/09/23 01:53:40;;;;;;;48.97;38.30;;;;;;;;;;5113903;28;20048;-62
2021/09/23 01:56:26;;;;;;;53.95;37.53;;;;;;;;;;5112275;28;20055;-62
2021/09/23 01:59:11;;;;;;;55.47;37.17;;;;;;;;;;5098446;28;20059;-61
2021/09/23 02:01:56;;;;;;;49.95;37.05;;;;;;;;;;5098671;28;20056;-63
2021/09/23 02:04:41;;;;;;;52.72;38.13;;;;;;;;;;5098034;28;20047;-61
2021/09/23 02:07:27;;;;;;;51.80;37.45;;;;;;;;;;5098412;28;20091;-62
2021/09/23 02:10:19;;;;;;;;;;;;;;;;;;5098612;28;20413;-61
2021/09/23 02:13:04;;;;;;;53.15;38.95;;;;;;;;;;5098258;28;19981;-62
2021/09/23 02:15:51;;;;;;;52.35;39.50;;;;;;;;;;5096363;28;20047;-61
2021/09/23 02:18:38;;;;;;;52.00;38.33;;;;;;;;;;5098384;28;20051;-62
2021/09/23 02:21:25;;;;;;;48.90;36.90;;;;;;;;;;5098240;28;20067;-62
2021/09/23 02:24:10;;;;;;;47.53;35.72;;;;;;;;;;5097755;28;20051;-61
2021/09/23 02:26:55;;;;;;;50.05;37.53;;;;;;;;;;5097444;28;20056;-61
2021/09/23 02:29:41;;;;;;;53.65;37.88;;;;;;;;;;5105032;28;20051;-63
2021/09/23 02:32:26;;;;;;;51.63;37.72;;;;;;;;;;5105245;28;20048;-62
2021/09/23 02:35:11;;;;;;;49.92;38.55;;;;;;;;;;5086427;28;20677;-63
2021/09/23 02:37:56;;;;;;;52.83;37.35;;;;;;;;;;5105489;28;20056;-62
2021/09/23 02:40:42;;;;;;;54.47;37.53;;;;;;;;;;5104104;28;20430;-62
2021/09/23 02:43:27;;;;;;;54.40;37.08;;;;;;;;;;5121404;28;20089;-63
2021/09/23 02:46:12;;;;;;;51.72;37.13;;;;;;;;;;5104598;28;20501;-62
2021/09/23 02:48:57;;;;;;;47.13;35.13;;;;;;;;;;5105902;28;20055;-63
2021/09/23 02:51:43;;;;;;;49.13;36.22;;;;;;;;;;5105385;28;20083;-61
2021/09/23 02:54:28;;;;;;;49.80;36.50;;;;;;;;;;5103436;28;20119;-62
2021/09/23 02:57:13;;;;;;;49.20;35.53;;;;;;;;;;5110731;28;20505;-62
2021/09/23 02:59:59;;;;;;;50.53;35.35;;;;;;;;;;5097241;28;20059;-62
2021/09/23 03:02:44;;;;;;;51.47;35.08;;;;;;;;;;5097452;28;20116;-62
2021/09/23 03:05:29;;;;;;;52.15;36.60;;;;;;;;;;5097067;28;20052;-62
2021/09/23 03:08:13;;;;;;;48.53;34.47;;;;;;;;;;5056726;28;20052;-62
2021/09/23 03:10:59;;;;;;;46.90;35.17;;;;;;;;;;5072611;28;20052;-62
2021/09/23 03:13:44;;;;;;;46.05;33.38;;;;;;;;;;5078413;28;20053;-62
2021/09/23 03:16:29;;;;;;;51.97;36.65;;;;;;;;;;5088231;28;20050;-62
2021/09/23 03:19:15;;;;;;;51.92;35.58;;;;;;;;;;5088645;28;20534;-61
2021/09/23 03:22:00;;;;;;;52.78;37.30;;;;;;;;;;5120468;28;20051;-62
2021/09/23 03:24:47;;;;;;;49.60;35.03;;;;;;;;;;5105088;28;20083;-62
2021/09/23 03:27:33;;;;;;;48.45;34.97;;;;;;;;;;5103947;28;20047;-61
2021/09/23 03:30:19;;;;;;;56.90;36.65;;;;;;;;;;5120012;28;20056;-61
2021/09/23 03:33:04;;;;;;;51.10;36.53;;;;;;;;;;5112468;28;20122;-61
2021/09/23 03:35:50;;;;;;;51.03;37.58;;;;;;;;;;5112329;28;20493;-61
2021/09/23 03:38:35;;;;;;;49.33;35.38;;;;;;;;;;5095334;28;20451;-61
2021/09/23 03:41:20;;;;;;;53.83;38.55;;;;;;;;;;5111027;28;20047;-61
2021/09/23 03:44:06;;;;;;;61.40;39.97;;;;;;;;;;5096944;28;20059;-61
2021/09/23 03:46:55;;;;;;;62.17;41.08;;;;;;;;;;5112506;28;20047;-61
2021/09/23 03:49:41;;;;;;;52.78;38.83;;;;;;;;;;5071955;28;20410;-62
2021/09/23 03:52:26;;;;;;;54.50;38.72;;;;;;;;;;5071811;28;20090;-62
2021/09/23 03:55:11;;;;;;;54.25;38.42;;;;;;;;;;5059634;28;20052;-62
2021/09/23 03:57:57;;;;;;;58.03;38.90;;;;;;;;;;5074587;28;20048;-62
2021/09/23 04:00:43;;;;;;;53.70;38.22;;;;;;;;;;5104680;28;20055;-63
2021/09/23 04:03:31;;;;;;;58.03;40.60;;;;;;;;;;5104981;28;20122;-62
2021/09/23 04:06:16;;;;;;;55.63;39.60;;;;;;;;;;5105281;28;20051;-62
2021/09/23 04:09:02;;;;;;;61.35;39.15;;;;;;;;;;5086540;28;20091;-62
2021/09/23 04:11:47;;;;;;;55.40;40.17;;;;;;;;;;5090546;28;20055;-62
2021/09/23 04:14:33;;;;;;;64.43;43.38;;;;;;;;;;5123135;28;20060;-62
2021/09/23 04:17:19;;;;;;;58.60;43.22;;;;;;;;;;5109188;28;20051;-63
2021/09/23 04:20:04;;;;;;;66.10;42.83;;;;;;;;;;5121009;28;20048;-63
2021/09/23 04:22:50;;;;;;;66.70;46.05;;;;;;;;;;5123344;28;20119;-62
2021/09/23 04:25:35;;;;;;;66.00;44.38;;;;;;;;;;5108130;28;20051;-63
2021/09/23 04:28:20;;;;;;;64.05;43.13;;;;;;;;;;5117302;28;20088;-61
2021/09/23 04:31:06;;;;;;;62.92;45.08;;;;;;;;;;5100360;28;20059;-61
2021/09/23 04:33:53;;;;;;;69.93;46.10;;;;;;;;;;5099696;28;20048;-61
2021/09/23 04:36:38;;;;;;;66.70;45.63;;;;;;;;;;5100325;28;20052;-61
2021/09/23 04:39:23;;;;;;;68.18;45.08;;;;;;;;;;5098593;28;20035;-61
2021/09/23 04:42:08;;;;;;;62.03;45.00;;;;;;;;;;5114115;28;20052;-62
2021/09/23 04:44:54;;;;;;;64.40;42.83;;;;;;;;;;5119228;28;20050;-61
2021/09/23 04:47:39;;;;;;;64.25;44.08;;;;;;;;;;5098140;28;20085;-61
2021/09/23 04:50:25;;;;;;;66.05;44.33;;;;;;;;;;5099698;28;20048;-62
2021/09/23 04:53:10;;;;;;;69.45;45.72;;;;;;;;;;5115272;28;20047;-61
2021/09/23 04:55:55;;;;;;;83.75;47.17;;;;;;;;;;5115245;28;20051;-61
2021/09/23 04:58:41;;;;;;;68.35;43.88;;;;;;;;;;5113348;28;20056;-61
2021/09/23 05:01:27;;;;;;;67.93;46.17;;;;;;;;;;5099864;28;20051;-61
2021/09/23 05:04:13;;;;;;;68.55;46.78;;;;;;;;;;5099352;28;20048;-61
2021/09/23 05:06:59;;;;;;;68.78;45.97;;;;;;;;;;5099247;28;20513;-61
2021/09/23 05:09:44;;;;;;;64.45;45.25;;;;;;;;;;5112671;28;20047;-61
2021/09/23 05:12:30;;;;;;;67.20;43.88;;;;;;;;;;5101865;28;20051;-62
2021/09/23 05:15:15;;;;;;;65.20;46.38;;;;;;;;;;5102756;28;20051;-62
2021/09/23 05:18:01;;;;;;;62.83;45.03;;;;;;;;;;5106389;28;20079;-61
2021/09/23 05:20:47;;;;;;;61.33;46.15;;;;;;;;;;5115747;28;20406;-61
2021/09/23 05:23:32;;;;;;;64.72;45.00;;;;;;;;;;5113082;28;20533;-62
2021/09/23 05:26:18;;;;;;;64.57;44.83;;;;;;;;;;5114788;28;20126;-62
2021/09/23 05:29:05;;;;;;;65.50;45.08;;;;;;;;;;5112410;28;20048;-61
2021/09/23 05:31:50;;;;;;;68.70;46.08;;;;;;;;;;5113192;28;20052;-61
2021/09/23 05:34:35;;;;;;;77.43;46.28;;;;;;;;;;5137785;22;20138;-62
2021/09/23 05:37:20;;;;;;;72.55;48.90;;;;;;;;;;5094125;28;20430;-62
2021/09/23 05:40:07;;;;;;;72.03;47.60;;;;;;;;;;5100744;28;20130;-62
2021/09/23 05:42:52;;;;;;;71.30;48.40;;;;;;;;;;5114429;28;20142;-62
2021/09/23 05:45:37;;;;;;;67.60;47.92;;;;;;;;;;5114422;28;20055;-61
2021/09/23 05:48:23;;;;;;;69.88;48.03;;;;;;;;;;5114241;28;20052;-62
2021/09/23 05:51:08;;;;;;;71.88;48.28;;;;;;;;;;5112502;28;20505;-62
2021/09/23 05:53:53;;;;;;;75.80;51.45;;;;;;;;;;5113851;28;20047;-62
2021/09/23 05:56:39;;;;;;;79.22;52.83;;;;;;;;;;5114109;28;20122;-62
2021/09/23 05:59:26;;;;;;;79.07;53.10;;;;;;;;;;5114281;28;20051;-61
2021/09/23 06:02:11;;;;;;;80.13;52.30;;;;;;;;;;5108847;28;20059;-62
2021/09/23 06:04:56;;;;;;;93.82;54.08;;;;;;;;;;5113531;28;20130;-62
2021/09/23 06:07:42;;;;;;;84.32;52.90;;;;;;;;;;5113920;28;20221;-62
2021/09/23 06:10:27;;;;;;;85.00;56.70;;;;;;;;;;5112300;28;20051;-62
2021/09/23 06:13:12;;;;;;;95.38;56.25;;;;;;;;;;5113727;28;20047;-62
2021/09/23 06:15:58;;;;;;;85.07;56.22;;;;;;;;;;5113837;28;20060;-62
2021/09/23 06:18:45;;;;;;;91.78;56.53;;;;;;;;;;5113741;28;20052;-62
2021/09/23 06:21:30;;;;;;;98.50;60.88;;;;;;;;;;5111983;28;20081;-62
2021/09/23 06:24:15;;;;;;;94.65;59.00;;;;;;;;;;5113416;28;20122;-63
2021/09/23 06:27:01;;;;;;;93.88;59.55;;;;;;;;;;5113473;28;20048;-62
2021/09/23 06:29:46;;;;;;;83.20;56.88;;;;;;;;;;5113428;28;20115;-62
2021/09/23 06:32:32;;;;;;;101.47;59.33;;;;;;;;;;5111186;28;20059;-62
2021/09/23 06:35:17;;;;;;;94.70;58.95;;;;;;;;;;5113765;28;20084;-62
2021/09/23 06:38:02;;;;;;;86.05;56.90;;;;;;;;;;5097887;28;20051;-62
2021/09/23 06:40:47;;;;;;;87.50;56.63;;;;;;;;;;5113091;28;20126;-62
2021/09/23 06:43:33;;;;;;;102.85;60.38;;;;;;;;;;5111208;28;20051;-62
2021/09/23 06:46:20;;;;;;;91.80;58.35;;;;;;;;;;5113136;28;20464;-62
2021/09/23 06:49:06;;;;;;;95.60;60.97;;;;;;;;;;5112855;28;20047;-62
2021/09/23 06:51:51;;;;;;;100.75;60.92;;;;;;;;;;5111503;28;20087;-62
2021/09/23 06:54:36;;;;;;;90.25;59.83;;;;;;;;;;5112664;28;20079;-62
2021/09/23 06:57:22;;;;;;;89.78;58.15;;;;;;;;;;5112766;28;20044;-62
2021/09/23 07:00:27;;;;;;;79.07;53.63;;;;;;;;;;5105758;28;20040;-62
2021/09/23 07:03:39;;;;;;;85.30;58.95;;;;;;;;;;5076716;28;20257;-62
2021/09/23 07:06:48;;;;;;;78.45;55.38;;;;;;;;;;5077163;28;20044;-62
2021/09/23 07:09:44;;;;;;;90.13;56.92;;;;;;;;;;5077245;28;20056;-62
2021/09/23 07:12:34;;;;;;;79.22;54.47;;;;;;;;;;5095024;28;20055;-62
2021/09/23 07:15:19;;;;;;;71.30;49.65;;;;;;;;;;5097071;28;20052;-62
2021/09/23 07:18:04;;;;;;;73.43;51.78;;;;;;;;;;5097015;28;20052;-62
2021/09/23 07:20:49;;;;;;;72.30;50.08;;;;;;;;;;5095375;28;20127;-63
2021/09/23 07:23:34;;;;;;;67.03;50.45;;;;;;;;;;5097053;28;20051;-63
2021/09/23 07:26:19;;;;;;;72.75;50.25;;;;;;;;;;5097144;28;20044;-62
2021/09/23 07:29:05;;;;;;;71.75;49.78;;;;;;;;;;5112294;28;20497;-62
2021/09/23 07:31:50;;;;;;;72.10;51.00;;;;;;;;;;5093703;28;20491;-63
2021/09/23 07:34:35;;;;;;;71.22;48.95;;;;;;;;;;5097158;28;20126;-62
2021/09/23 07:37:20;;;;;;;70.00;49.25;;;;;;;;;;5096980;28;20500;-62
2021/09/23 07:40:06;;;;;;;68.15;47.53;;;;;;;;;;5112690;28;20052;-62
2021/09/23 07:42:52;;;;;;;66.68;45.72;;;;;;;;;;5109627;28;20475;-62
2021/09/23 07:45:37;;;;;;;63.20;46.08;;;;;;;;;;5115779;28;20048;-62
2021/09/23 07:48:22;;;;;;;57.53;42.90;;;;;;;;;;5101017;28;20118;-62
2021/09/23 07:51:08;;;;;;;59.60;42.53;;;;;;;;;;5100964;28;20048;-62
2021/09/23 07:53:53;;;;;;;60.20;44.10;;;;;;;;;;5098416;28;20118;-62
2021/09/23 07:56:38;;;;;;;59.90;41.47;;;;;;;;;;5101146;28;20052;-63
2021/09/23 07:59:24;;;;;;;52.38;38.72;;;;;;;;;;5100891;28;20501;-63
2021/09/23 08:02:09;;;;;;;48.95;35.53;;;;;;;;;;5099166;28;20051;-62
2021/09/23 08:04:54;;;;;;;54.60;35.03;;;;;;;;;;5100442;28;20052;-62
2021/09/23 08:07:39;;;;;;;44.55;33.15;;;;;;;;;;5116253;28;20405;-63
2021/09/23 08:10:24;;;;;;;43.47;31.30;;;;;;;;;;5100938;28;20114;-63
2021/09/23 08:13:10;;;;;;;42.40;30.50;;;;;;;;;;5099130;28;20412;-63
2021/09/23 08:15:56;;;;;;;39.30;28.23;;;;;;;;;;5100600;28;20051;-62
2021/09/23 08:19:01;;;;;;;40.20;26.83;;;;;;;;;;5113032;28;20044;-62
2021/09/23 08:22:19;;;;;;;38.80;28.08;;;;;;;;;;5097847;28;20083;-62
2021/09/23 08:25:04;;;;;;;51.17;26.20;;;;;;;;;;5098766;28;20560;-62
2021/09/23 08:27:50;;;;;;;31.23;23.77;;;;;;;;;;5100600;28;20052;-63
2021/09/23 08:30:36;;;;;;;30.20;23.35;;;;;;;;;;5116023;28;20051;-62
2021/09/23 08:33:21;;;;;;;28.65;20.80;;;;;;;;;;5096675;28;20044;-62
2021/09/23 08:36:06;;;;;;;29.23;20.02;;;;;;;;;;5100540;28;20047;-62
2021/09/23 08:38:52;;;;;;;27.00;17.95;;;;;;;;;;5083750;28;20051;-62
2021/09/23 08:41:38;;;;;;;22.23;14.77;;;;;;;;;;5099914;28;20051;-62
2021/09/23 08:44:23;;;;;;;20.98;12.98;;;;;;;;;;5085533;28;20119;-62
2021/09/23 08:47:09;;;;;;;15.35;9.88;;;;;;;;;;5099985;28;20395;-62
2021/09/23 08:49:54;;;;;;;16.13;10.38;;;;;;;;;;5115212;28;20427;-62
2021/09/23 08:52:40;;;;;;;13.52;8.50;;;;;;;;;;5098254;28;20055;-63
2021/09/23 08:55:29;;;;;;;18.10;7.15;;;;;;;;;;5099613;28;20051;-62
2021/09/23 08:58:24;;;;;;;20.40;5.78;;;;;;;;;;5115160;28;20130;-62
2021/09/23 09:01:18;;;;;;;15.85;5.00;;;;;;;;;;5099825;28;20044;-63
2021/09/23 09:04:22;;;;;;;24.60;5.50;;;;;;;;;;5097619;28;20059;-63
2021/09/23 09:07:45;;;;;;;28.73;4.50;;;;;;;;;;5099544;28;20506;-62
2021/09/23 09:10:36;;;;;;;14.40;4.50;;;;;;;;;;5099442;28;20118;-63
2021/09/23 09:13:21;;;;;;;11.13;3.90;;;;;;;;;;5109281;28;20044;-62
2021/09/23 09:16:38;;;;;;;7.85;3.35;;;;;;;;;;5080393;28;20044;-62
2021/09/23 09:19:23;;;;;;;10.32;3.22;;;;;;;;;;5083606;28;20126;-63
2021/09/23 09:22:09;;;;;;;15.13;4.13;;;;;;;;;;5095642;28;20123;-62
2021/09/23 09:24:58;;;;;;;20.20;3.83;;;;;;;;;;5079734;28;20497;-62
2021/09/23 09:27:44;;;;;;;7.45;2.80;;;;;;;;;;5067961;28;20048;-62
2021/09/23 09:30:33;;;;;;;17.75;3.58;;;;;;;;;;5082802;28;20048;-62
2021/09/23 09:33:19;;;;;;;8.20;2.83;;;;;;;;;;5084504;28;20413;-62
2021/09/23 09:36:05;;;;;;;5.53;2.47;;;;;;;;;;5092193;28;20048;-62
2021/09/23 09:38:51;;;;;;;12.68;2.30;;;;;;;;;;5080963;28;20044;-62
2021/09/23 09:41:37;;;;;;;7.10;2.30;;;;;;;;;;5082700;28;20119;-63
2021/09/23 09:44:23;;;;;;;13.25;4.10;;;;;;;;;;5080629;28;20048;-62
2021/09/23 09:47:11;;;;;;;4.75;2.22;;;;;;;;;;5091262;28;20055;-62
2021/09/23 09:49:57;;;;;;;11.43;2.92;;;;;;;;;;5078896;28;20047;-63
2021/09/23 09:52:49;;;;;;;6.25;2.15;;;;;;;;;;5072604;28;20056;-63
2021/09/23 09:55:35;;;;;;;13.73;2.47;;;;;;;;;;5072117;28;20060;-63
2021/09/23 09:58:27;;;;;;;7.82;1.88;;;;;;;;;;5072087;28;20048;-63
2021/09/23 10:01:12;;;;;;;8.27;1.70;;;;;;;;;;5088035;28;20101;-62
2021/09/23 10:03:58;;;;;;;9.85;2.38;;;;;;;;;;5097759;28;20051;-62
2021/09/23 10:06:43;;;;;;;5.40;1.73;;;;;;;;;;5112986;28;20413;-63
2021/09/23 10:09:28;;;;;;;5.43;1.73;;;;;;;;;;5098310;28;20047;-62
2021/09/23 10:12:13;;;;;;;13.32;2.42;;;;;;;;;;5095782;28;20048;-62
2021/09/23 10:14:59;;;;;;;19.65;2.35;;;;;;;;;;5083473;28;20048;-62
2021/09/23 10:17:46;;;;;;;11.63;2.47;;;;;;;;;;5084140;28;20052;-62
2021/09/23 10:20:31;;;;;;;6.28;1.50;;;;;;;;;;5097989;28;20055;-63
2021/09/23 10:23:16;;;;;;;8.50;1.40;;;;;;;;;;5096071;28;20432;-62
2021/09/23 10:26:11;;;;;;;8.60;1.90;;;;;;;;;;5097932;28;20051;-63
2021/09/23 10:28:58;;;;;;;8.98;1.88;;;;;;;;;;5097383;28;20578;-68
2021/09/23 10:31:44;;;;;;;6.80;1.88;;;;;;;;;;5081446;28;20447;-67
2021/09/23 10:34:30;;;;;;;9.38;1.75;;;;;;;;;;5111637;28;20051;-68
2021/09/23 10:37:15;;;;;;;7.95;1.42;;;;;;;;;;5066311;28;20522;-67
2021/09/23 10:40:01;;;;;;;8.85;1.90;;;;;;;;;;5097578;28;20051;-68
2021/09/23 10:42:47;;;;;;;6.78;1.60;;;;;;;;;;5094388;28;20498;-67
2021/09/23 10:45:33;;;;;;;18.40;2.65;;;;;;;;;;5109964;28;20051;-68
2021/09/23 10:48:17;;;;;;;8.07;1.35;;;;;;;;;;5076049;28;20088;-68
2021/09/23 10:51:05;;;;;;;7.18;1.98;;;;;;;;;;5083434;28;20126;-69
2021/09/23 10:53:58;;;;;;;8.27;1.80;;;;;;;;;;5079808;28;20055;-69
2021/09/23 10:56:46;;;;;;;7.43;1.55;;;;;;;;;;5095786;28;20047;-68
2021/09/23 10:59:32;;;;;;;4.05;1.60;;;;;;;;;;5111617;28;20446;-68
2021/09/23 11:02:28;;;;;;;7.43;1.48;;;;;;;;;;5066102;28;20059;-68
2021/09/23 11:05:14;;;;;;;11.23;1.67;;;;;;;;;;5078391;28;20413;-68
2021/09/23 11:08:01;;;;;;;9.23;1.40;;;;;;;;;;5079893;28;20063;-68
2021/09/23 11:10:47;;;;;;;11.25;1.60;;;;;;;;;;5079897;28;20052;-67
2021/09/23 11:13:35;;;;;;;10.23;1.70;;;;;;;;;;5082692;28;20051;-68
2021/09/23 11:16:20;;;;;;;8.43;1.80;;;;;;;;;;5064693;28;20130;-68
2021/09/23 11:19:07;;;;;;;8.13;1.63;;;;;;;;;;5080895;28;20501;-68
2021/09/23 11:21:54;;;;;;;13.27;1.75;;;;;;;;;;5093932;28;20122;-68
2021/09/23 11:24:40;;;;;;;7.90;2.08;;;;;;;;;;5079473;28;20063;-68
2021/09/23 11:27:25;;;;;;;7.43;1.50;;;;;;;;;;5062699;28;20093;-68
2021/09/23 11:30:16;;;;;;;4.60;1.73;;;;;;;;;;5079618;28;20052;-67
2021/09/23 11:33:04;;;;;;;8.35;1.55;;;;;;;;;;5065911;28;20044;-69
2021/09/23 11:35:51;;;;;;;4.35;1.33;;;;;;;;;;5108931;28;20051;-68
2021/09/23 11:38:37;;;;;;;9.73;2.42;;;;;;;;;;5073502;28;20186;-69
2021/09/23 11:41:26;;;;;;;8.93;1.80;;;;;;;;;;5076163;28;20509;-68
2021/09/23 11:44:25;;;;;;;5.45;1.55;;;;;;;;;;5091492;28;20056;-68
2021/09/23 11:47:14;;;;;;;61.38;5.00;;;;;;;;;;5044884;28;20052;-68
2021/09/23 11:49:59;;;;;;;10.05;2.13;;;;;;;;;;5071539;28;20090;-69
2021/09/23 11:52:51;;;;;;;12.13;2.38;;;;;;;;;;5042778;28;20123;-69
2021/09/23 11:55:41;;;;;;;8.40;2.20;;;;;;;;;;5062733;28;20444;-68
2021/09/23 11:58:28;;;;;;;5.73;1.67;;;;;;;;;;5066190;28;20055;-68
2021/09/23 12:01:13;;;;;;;9.52;2.17;;;;;;;;;;5082458;28;20498;-68
2021/09/23 12:04:00;;;;;;;11.07;2.38;;;;;;;;;;5078965;28;20051;-69
2021/09/23 12:07:00;;;;;;;7.25;1.95;;;;;;;;;;5077568;28;20059;-68
2021/09/23 12:10:04;;;;;;;10.50;2.45;;;;;;;;;;5082240;28;20044;-68
2021/09/23 12:12:56;;;;;;;9.20;2.35;;;;;;;;;;5069608;28;20060;-68
2021/09/23 12:15:42;;;;;;;9.88;2.33;;;;;;;;;;5064442;28;20069;-68
2021/09/23 12:18:28;;;;;;;10.18;2.47;;;;;;;;;;5051800;28;20052;-67
2021/09/23 12:21:13;;;;;;;7.75;2.58;;;;;;;;;;5080540;28;20060;-68
2021/09/23 12:23:59;;;;;;;9.25;2.75;;;;;;;;;;5061719;28;20084;-67
2021/09/23 12:26:50;;;;;;;9.43;2.88;;;;;;;;;;5069595;28;20090;-69
2021/09/23 12:29:35;;;;;;;8.82;2.50;;;;;;;;;;5079327;28;20410;-68
2021/09/23 12:32:21;;;;;;;8.15;2.00;;;;;;;;;;5100331;28;20051;-68
2021/09/23 12:35:19;;;;;;;8.18;2.47;;;;;;;;;;5079555;28;20052;-68
2021/09/23 12:38:11;;;;;;;13.68;2.83;;;;;;;;;;5077311;28;20055;-68
2021/09/23 12:41:16;;;;;;;7.57;2.40;;;;;;;;;;5082729;28;20048;-68
2021/09/23 12:44:04;;;;;;;8.73;2.45;;;;;;;;;;5115196;28;20052;-69
2021/09/23 12:47:10;;;;;;;11.07;3.17;;;;;;;;;;5081111;28;20093;-69
2021/09/23 12:49:55;;;;;;;6.47;1.88;;;;;;;;;;5082587;28;20245;-68
2021/09/23 12:52:42;;;;;;;11.30;2.40;;;;;;;;;;5099943;28;20047;-69
2021/09/23 12:55:32;;;;;;;8.10;2.42;;;;;;;;;;5082447;28;20052;-69
2021/09/23 12:58:22;;;;;;;7.55;1.90;;;;;;;;;;5098318;28;20048;-69
2021/09/23 13:01:18;;;;;;;7.78;2.03;;;;;;;;;;5096865;28;20047;-69
2021/09/23 13:04:19;;;;;;;6.18;2.60;;;;;;;;;;5099283;28;20051;-68
2021/09/23 13:07:19;;;;;;;8.48;2.45;;;;;;;;;;5079695;28;20056;-68
2021/09/23 13:10:06;;;;;;;9.32;2.60;;;;;;;;;;5099510;28;20048;-68
2021/09/23 13:12:58;;;;;;;7.35;2.17;;;;;;;;;;5068343;28;20083;-69
2021/09/23 13:15:46;;;;;;;7.13;2.22;;;;;;;;;;5081941;28;20091;-69
2021/09/23 13:18:32;;;;;;;6.55;1.50;;;;;;;;;;5079879;28;20064;-69
2021/09/23 13:21:29;;;;;;;5.63;1.98;;;;;;;;;;5082085;28;20122;-68
2021/09/23 13:24:15;;;;;;;7.97;2.25;;;;;;;;;;5096056;28;20059;-68
2021/09/23 13:27:01;;;;;;;10.23;1.73;;;;;;;;;;5113586;28;20052;-69
2021/09/23 13:29:47;;;;;;;7.63;1.58;;;;;;;;;;5097622;28;20048;-68
2021/09/23 13:32:32;;;;;;;7.85;2.22;;;;;;;;;;5096400;28;20476;-69
2021/09/23 13:35:17;;;;;;;5.05;1.75;;;;;;;;;;5081634;28;20051;-69
2021/09/23 13:38:03;;;;;;;7.00;1.58;;;;;;;;;;5098229;28;20047;-67
2021/09/23 13:40:50;;;;;;;4.90;1.42;;;;;;;;;;5072788;28;20052;-67
2021/09/23 13:43:39;;;;;;;4.75;1.42;;;;;;;;;;5041042;28;20410;-68
2021/09/23 13:46:36;;;;;;;8.48;1.90;;;;;;;;;;5041729;28;20404;-68
2021/09/23 13:49:21;;;;;;;6.43;1.60;;;;;;;;;;5056218;28;20056;-68
2021/09/23 13:52:06;;;;;;;9.55;1.83;;;;;;;;;;5095522;28;20057;-68
2021/09/23 13:54:56;;;;;;;11.00;1.92;;;;;;;;;;5098284;28;20047;-67
2021/09/23 13:57:41;;;;;;;8.57;1.38;;;;;;;;;;5081442;28;20051;-68
2021/09/23 14:00:28;;;;;;;8.20;1.45;;;;;;;;;;5096831;28;20130;-68
2021/09/23 14:03:13;;;;;;;3.80;1.60;;;;;;;;;;5098598;28;20059;-68
2021/09/23 14:06:07;;;;;;;6.10;1.80;;;;;;;;;;5098520;28;20476;-68
2021/09/23 14:08:53;;;;;;;6.38;1.67;;;;;;;;;;5054975;28;20056;-68
2021/09/23 14:11:50;;;;;;;7.80;1.75;;;;;;;;;;5084910;28;20060;-69
2021/09/23 14:14:52;;;;;;;11.75;2.40;;;;;;;;;;5084847;28;20040;-68
2021/09/23 14:17:37;;;;;;;17.10;3.10;;;;;;;;;;5080931;28;20052;-70
2021/09/23 14:20:22;;;;;;;14.25;2.05;;;;;;;;;;5084187;28;20052;-69
2021/09/23 14:23:08;;;;;;;8.98;2.20;;;;;;;;;;5112473;28;20051;-69
2021/09/23 14:25:53;;;;;;;8.60;2.50;;;;;;;;;;5098165;28;20048;-68
2021/09/23 14:28:38;;;;;;;5.97;2.22;;;;;;;;;;5113352;28;20564;-68
2021/09/23 14:31:24;;;;;;;9.23;2.38;;;;;;;;;;5079146;28;20130;-68
2021/09/23 14:34:09;;;;;;;7.38;2.25;;;;;;;;;;5080589;28;20440;-69
2021/09/23 14:36:54;;;;;;;9.23;2.20;;;;;;;;;;5094938;28;20055;-68
2021/09/23 14:39:39;;;;;;;6.95;2.20;;;;;;;;;;5113302;28;20051;-69
2021/09/23 14:42:25;;;;;;;7.38;2.10;;;;;;;;;;5111475;28;20075;-69
2021/09/23 14:45:13;;;;;;;9.38;2.30;;;;;;;;;;5111750;28;20051;-68
2021/09/23 14:47:59;;;;;;;8.20;2.45;;;;;;;;;;5113000;28;20047;-69
2021/09/23 14:50:44;;;;;;;12.02;3.00;;;;;;;;;;5093053;28;20052;-68
2021/09/23 14:53:29;;;;;;;7.85;2.03;;;;;;;;;;5094198;28;20051;-69
2021/09/23 14:56:16;;;;;;;6.47;1.90;;;;;;;;;;5113111;28;20047;-72
2021/09/23 14:59:01;;;;;;;8.82;2.05;;;;;;;;;;5080686;28;20051;-68
2021/09/23 15:01:47;;;;;;;12.60;2.25;;;;;;;;;;5073881;28;20118;-68
2021/09/23 15:04:32;;;;;;;7.57;2.03;;;;;;;;;;5111408;28;20093;-69
2021/09/23 15:07:17;;;;;;;6.47;1.80;;;;;;;;;;5094466;28;20048;-69
2021/09/23 15:10:02;;;;;;;10.30;2.55;;;;;;;;;;5112900;28;20083;-69
2021/09/23 15:12:48;;;;;;;7.32;2.13;;;;;;;;;;5112714;28;20051;-68
2021/09/23 15:15:33;;;;;;;8.80;2.20;;;;;;;;;;5112283;28;20052;-68
2021/09/23 15:18:18;;;;;;;7.18;2.55;;;;;;;;;;5112795;28;20420;-69
2021/09/23 15:21:04;;;;;;;11.30;2.15;;;;;;;;;;5111038;28;20055;-69
2021/09/23 15:23:49;;;;;;;11.05;2.50;;;;;;;;;;5062676;28;20049;-68
2021/09/23 15:26:35;;;;;;;7.85;2.00;;;;;;;;;;5071967;28;20522;-69
2021/09/23 15:29:20;;;;;;;9.90;2.42;;;;;;;;;;5071925;28;20053;-68
2021/09/23 15:32:06;;;;;;;12.35;2.40;;;;;;;;;;5090833;28;20059;-68
2021/09/23 15:34:52;;;;;;;10.40;2.65;;;;;;;;;;5106594;28;20052;-69
2021/09/23 15:37:40;;;;;;;5.85;2.20;;;;;;;;;;5091517;28;20048;-69
2021/09/23 15:40:25;;;;;;;9.38;2.40;;;;;;;;;;5090360;28;20048;-69
2021/09/23 15:43:11;;;;;;;9.07;2.17;;;;;;;;;;5090479;28;20048;-69
2021/09/23 15:45:56;;;;;;;11.80;2.67;;;;;;;;;;5073239;28;20056;-69
2021/09/23 15:48:41;;;;;;;10.55;2.20;;;;;;;;;;5086590;28;20059;-69
2021/09/23 15:51:26;;;;;;;8.75;2.85;;;;;;;;;;5069802;28;20052;-70
2021/09/23 15:54:12;;;;;;;7.25;1.90;;;;;;;;;;5070474;28;20048;-70
2021/09/23 15:56:57;;;;;;;9.40;2.40;;;;;;;;;;5053935;28;20040;-70
2021/09/23 15:59:42;;;;;;;12.00;2.88;;;;;;;;;;5054502;28;20052;-70
2021/09/23 16:02:27;;;;;;;13.20;3.00;;;;;;;;;;5086284;28;20036;-70
2021/09/23 16:05:12;;;;;;;8.18;2.30;;;;;;;;;;5071929;28;20048;-70
2021/09/23 16:07:59;;;;;;;6.57;2.03;;;;;;;;;;5078524;28;20044;-70
2021/09/23 16:10:45;;;;;;;7.75;2.15;;;;;;;;;;5092969;28;20096;-71
2021/09/23 16:13:30;;;;;;;7.80;2.38;;;;;;;;;;5092605;28;20044;-70
2021/09/23 16:16:16;;;;;;;8.73;2.53;;;;;;;;;;5077678;28;20123;-70
2021/09/23 16:19:01;;;;;;;10.63;3.25;;;;;;;;;;5079553;28;20502;-71
2021/09/23 16:21:47;;;;;;;14.80;2.55;;;;;;;;;;5060509;28;20083;-71
2021/09/23 16:24:32;;;;;;;9.27;2.70;;;;;;;;;;5077366;28;20051;-71
2021/09/23 16:27:17;;;;;;;11.00;2.45;;;;;;;;;;5093779;28;20048;-70